sensor_id;sensor_type;location;lat;lon;timestamp;P1;durP1;ratioP1;P2;durP2;ratioP2
9807;SDS011;4943;52.550;13.462;2023-02-26T00:01:37;153.00;;;45.20;;
9807;SDS011;4943;52.550;13.462;2023-02-26T00:04:06;153.47;;;45.60;;
9807;SDS011;4943;52.550;13.462;2023-02-26T00:06:37;151.97;;;44.63;;
9807;SDS011;4943;52.550;13.462;2023-02-26T00:09:18;149.20;;;43.93;;
9807;SDS011;4943;52.550;13.462;2023-02-26T00:11:48;150.37;;;44.93;;
9807;SDS011;4943;52.550;13.462;2023-02-26T00:14:16;148.27;;;44.40;;
9807;SDS011;4943;52.550;13.462;2023-02-26T00:16:45;151.63;;;45.90;;
9807;SDS011;4943;52.550;13.462;2023-02-26T00:19:17;151.00;;;45.20;;
9807;SDS011;4943;52.550;13.462;2023-02-26T00:21:46;150.07;;;45.23;;
9807;SDS011;4943;52.550;13.462;2023-02-26T00:24:14;145.70;;;44.00;;
9807;SDS011;4943;52.550;13.462;2023-02-26T00:26:42;143.53;;;44.70;;
9807;SDS011;4943;52.550;13.462;2023-02-26T00:29:12;143.27;;;44.00;;
9807;SDS011;4943;52.550;13.462;2023-02-26T00:31:40;146.47;;;45.00;;
9807;SDS011;4943;52.550;13.462;2023-02-26T00:34:10;145.53;;;43.60;;
9807;SDS011;4943;52.550;13.462;2023-02-26T00:36:40;148.53;;;44.37;;
9807;SDS011;4943;52.550;13.462;2023-02-26T00:39:19;141.47;;;43.83;;
9807;SDS011;4943;52.550;13.462;2023-02-26T00:41:59;143.90;;;43.83;;
9807;SDS011;4943;52.550;13.462;2023-02-26T00:44:29;139.50;;;42.93;;
9807;SDS011;4943;52.550;13.462;2023-02-26T00:46:59;142.53;;;44.73;;
9807;SDS011;4943;52.550;13.462;2023-02-26T00:49:40;140.93;;;43.30;;
9807;SDS011;4943;52.550;13.462;2023-02-26T00:52:18;144.13;;;43.93;;
9807;SDS011;4943;52.550;13.462;2023-02-26T00:54:52;146.90;;;45.27;;
9807;SDS011;4943;52.550;13.462;2023-02-26T00:57:20;146.90;;;44.03;;
9807;SDS011;4943;52.550;13.462;2023-02-26T00:59:50;142.53;;;44.40;;
9807;SDS011;4943;52.550;13.462;2023-02-26T01:02:18;146.47;;;44.97;;
9807;SDS011;4943;52.550;13.462;2023-02-26T01:04:46;141.03;;;44.37;;
9807;SDS011;4943;52.550;13.462;2023-02-26T01:07:14;136.30;;;43.10;;
9807;SDS011;4943;52.550;13.462;2023-02-26T01:09:48;140.33;;;44.27;;
9807;SDS011;4943;52.550;13.462;2023-02-26T01:12:17;137.27;;;42.80;;
9807;SDS011;4943;52.550;13.462;2023-02-26T01:14:46;136.00;;;43.40;;
9807;SDS011;4943;52.550;13.462;2023-02-26T01:17:17;134.37;;;42.17;;
9807;SDS011;4943;52.550;13.462;2023-02-26T01:19:50;134.97;;;43.30;;
9807;SDS011;4943;52.550;13.462;2023-02-26T01:22:21;137.90;;;44.00;;
9807;SDS011;4943;52.550;13.462;2023-02-26T01:24:53;134.80;;;43.53;;
9807;SDS011;4943;52.550;13.462;2023-02-26T01:27:28;132.90;;;42.90;;
9807;SDS011;4943;52.550;13.462;2023-02-26T01:29:56;143.13;;;44.73;;
9807;SDS011;4943;52.550;13.462;2023-02-26T01:32:28;139.33;;;43.47;;
9807;SDS011;4943;52.550;13.462;2023-02-26T01:35:06;139.83;;;43.40;;
9807;SDS011;4943;52.550;13.462;2023-02-26T01:37:46;138.97;;;43.67;;
9807;SDS011;4943;52.550;13.462;2023-02-26T01:40:30;134.87;;;43.37;;
9807;SDS011;4943;52.550;13.462;2023-02-26T01:43:11;135.30;;;43.70;;
9807;SDS011;4943;52.550;13.462;2023-02-26T01:45:48;133.63;;;42.77;;
9807;SDS011;4943;52.550;13.462;2023-02-26T01:48:32;126.27;;;41.20;;
9807;SDS011;4943;52.550;13.462;2023-02-26T01:51:04;133.53;;;42.80;;
9807;SDS011;4943;52.550;13.462;2023-02-26T01:53:32;131.77;;;42.07;;
9807;SDS011;4943;52.550;13.462;2023-02-26T01:56:00;129.63;;;43.03;;
9807;SDS011;4943;52.550;13.462;2023-02-26T01:58:32;128.30;;;42.23;;
9807;SDS011;4943;52.550;13.462;2023-02-26T02:01:03;132.93;;;44.17;;
9807;SDS011;4943;52.550;13.462;2023-02-26T02:03:34;129.70;;;45.57;;
9807;SDS011;4943;52.550;13.462;2023-02-26T02:06:07;128.17;;;42.00;;
9807;SDS011;4943;52.550;13.462;2023-02-26T02:08:37;128.57;;;42.17;;
9807;SDS011;4943;52.550;13.462;2023-02-26T02:11:06;126.10;;;41.87;;
9807;SDS011;4943;52.550;13.462;2023-02-26T02:13:39;129.57;;;42.13;;
9807;SDS011;4943;52.550;13.462;2023-02-26T02:16:16;127.10;;;42.13;;
9807;SDS011;4943;52.550;13.462;2023-02-26T02:18:55;125.80;;;42.73;;
9807;SDS011;4943;52.550;13.462;2023-02-26T02:21:40;127.73;;;42.23;;
9807;SDS011;4943;52.550;13.462;2023-02-26T02:24:18;127.37;;;41.90;;
9807;SDS011;4943;52.550;13.462;2023-02-26T02:26:57;125.13;;;42.97;;
9807;SDS011;4943;52.550;13.462;2023-02-26T02:29:48;121.27;;;41.23;;
9807;SDS011;4943;52.550;13.462;2023-02-26T02:32:25;128.07;;;41.70;;
9807;SDS011;4943;52.550;13.462;2023-02-26T02:34:59;124.20;;;42.50;;
9807;SDS011;4943;52.550;13.462;2023-02-26T02:37:33;126.73;;;42.03;;
9807;SDS011;4943;52.550;13.462;2023-02-26T02:40:05;125.70;;;41.73;;
9807;SDS011;4943;52.550;13.462;2023-02-26T02:42:38;127.60;;;42.60;;
9807;SDS011;4943;52.550;13.462;2023-02-26T02:45:12;123.47;;;41.83;;
9807;SDS011;4943;52.550;13.462;2023-02-26T02:47:47;123.33;;;42.17;;
9807;SDS011;4943;52.550;13.462;2023-02-26T02:50:20;122.80;;;41.63;;
9807;SDS011;4943;52.550;13.462;2023-02-26T02:52:53;127.60;;;43.43;;
9807;SDS011;4943;52.550;13.462;2023-02-26T02:55:28;125.13;;;41.73;;
9807;SDS011;4943;52.550;13.462;2023-02-26T02:58:00;125.77;;;42.73;;
9807;SDS011;4943;52.550;13.462;2023-02-26T03:00:33;132.07;;;43.13;;
9807;SDS011;4943;52.550;13.462;2023-02-26T03:03:06;122.33;;;41.20;;
9807;SDS011;4943;52.550;13.462;2023-02-26T03:05:39;119.03;;;40.60;;
9807;SDS011;4943;52.550;13.462;2023-02-26T03:08:09;122.80;;;41.30;;
9807;SDS011;4943;52.550;13.462;2023-02-26T03:10:41;119.57;;;41.10;;
9807;SDS011;4943;52.550;13.462;2023-02-26T03:13:13;118.87;;;40.73;;
9807;SDS011;4943;52.550;13.462;2023-02-26T03:15:45;114.07;;;40.03;;
9807;SDS011;4943;52.550;13.462;2023-02-26T03:18:24;124.70;;;41.67;;
9807;SDS011;4943;52.550;13.462;2023-02-26T03:21:02;117.17;;;41.10;;
9807;SDS011;4943;52.550;13.462;2023-02-26T03:23:34;121.40;;;40.67;;
9807;SDS011;4943;52.550;13.462;2023-02-26T03:26:10;116.80;;;40.23;;
9807;SDS011;4943;52.550;13.462;2023-02-26T03:28:43;118.63;;;40.50;;
9807;SDS011;4943;52.550;13.462;2023-02-26T03:31:19;119.60;;;41.20;;
9807;SDS011;4943;52.550;13.462;2023-02-26T03:33:53;120.80;;;41.70;;
9807;SDS011;4943;52.550;13.462;2023-02-26T03:36:26;118.03;;;40.93;;
9807;SDS011;4943;52.550;13.462;2023-02-26T03:39:00;117.10;;;41.30;;
9807;SDS011;4943;52.550;13.462;2023-02-26T03:41:33;118.37;;;40.27;;
9807;SDS011;4943;52.550;13.462;2023-02-26T03:44:07;115.73;;;40.07;;
9807;SDS011;4943;52.550;13.462;2023-02-26T03:46:40;118.40;;;40.63;;
9807;SDS011;4943;52.550;13.462;2023-02-26T03:49:14;116.90;;;40.70;;
9807;SDS011;4943;52.550;13.462;2023-02-26T03:51:49;115.97;;;40.13;;
9807;SDS011;4943;52.550;13.462;2023-02-26T03:54:19;113.67;;;39.87;;
9807;SDS011;4943;52.550;13.462;2023-02-26T03:56:50;113.17;;;40.13;;
9807;SDS011;4943;52.550;13.462;2023-02-26T03:59:18;112.10;;;39.90;;
9807;SDS011;4943;52.550;13.462;2023-02-26T04:01:48;109.83;;;40.00;;
9807;SDS011;4943;52.550;13.462;2023-02-26T04:04:23;109.47;;;39.50;;
9807;SDS011;4943;52.550;13.462;2023-02-26T04:06:56;111.43;;;40.93;;
9807;SDS011;4943;52.550;13.462;2023-02-26T04:09:24;108.67;;;39.27;;
9807;SDS011;4943;52.550;13.462;2023-02-26T04:11:53;108.37;;;40.60;;
9807;SDS011;4943;52.550;13.462;2023-02-26T04:14:23;109.53;;;39.47;;
9807;SDS011;4943;52.550;13.462;2023-02-26T04:16:51;108.93;;;40.53;;
9807;SDS011;4943;52.550;13.462;2023-02-26T04:19:19;103.00;;;37.83;;
9807;SDS011;4943;52.550;13.462;2023-02-26T04:21:49;109.03;;;39.53;;
9807;SDS011;4943;52.550;13.462;2023-02-26T04:24:17;99.70;;;38.23;;
9807;SDS011;4943;52.550;13.462;2023-02-26T04:26:45;97.77;;;37.73;;
9807;SDS011;4943;52.550;13.462;2023-02-26T04:29:13;105.57;;;39.37;;
9807;SDS011;4943;52.550;13.462;2023-02-26T04:31:41;94.53;;;37.33;;
9807;SDS011;4943;52.550;13.462;2023-02-26T04:34:09;94.20;;;38.47;;
9807;SDS011;4943;52.550;13.462;2023-02-26T04:36:37;89.93;;;37.17;;
9807;SDS011;4943;52.550;13.462;2023-02-26T04:39:07;99.87;;;38.60;;
9807;SDS011;4943;52.550;13.462;2023-02-26T04:41:36;100.50;;;38.57;;
9807;SDS011;4943;52.550;13.462;2023-02-26T04:44:04;107.80;;;39.10;;
9807;SDS011;4943;52.550;13.462;2023-02-26T04:46:32;96.37;;;36.97;;
9807;SDS011;4943;52.550;13.462;2023-02-26T04:49:00;100.07;;;38.87;;
9807;SDS011;4943;52.550;13.462;2023-02-26T04:51:28;95.00;;;37.43;;
9807;SDS011;4943;52.550;13.462;2023-02-26T04:53:57;96.60;;;38.47;;
9807;SDS011;4943;52.550;13.462;2023-02-26T04:56:26;96.73;;;37.80;;
9807;SDS011;4943;52.550;13.462;2023-02-26T04:58:54;98.23;;;39.00;;
9807;SDS011;4943;52.550;13.462;2023-02-26T05:01:22;95.27;;;37.57;;
9807;SDS011;4943;52.550;13.462;2023-02-26T05:03:50;85.80;;;35.83;;
9807;SDS011;4943;52.550;13.462;2023-02-26T05:06:18;88.60;;;36.70;;
9807;SDS011;4943;52.550;13.462;2023-02-26T05:08:46;89.13;;;37.63;;
9807;SDS011;4943;52.550;13.462;2023-02-26T05:11:14;91.60;;;37.47;;
9807;SDS011;4943;52.550;13.462;2023-02-26T05:13:44;89.90;;;36.47;;
9807;SDS011;4943;52.550;13.462;2023-02-26T05:16:13;91.67;;;37.93;;
9807;SDS011;4943;52.550;13.462;2023-02-26T05:18:41;93.70;;;37.17;;
9807;SDS011;4943;52.550;13.462;2023-02-26T05:21:09;91.53;;;36.50;;
9807;SDS011;4943;52.550;13.462;2023-02-26T05:23:37;89.80;;;36.23;;
9807;SDS011;4943;52.550;13.462;2023-02-26T05:26:05;91.33;;;37.60;;
9807;SDS011;4943;52.550;13.462;2023-02-26T05:28:33;89.63;;;36.50;;
9807;SDS011;4943;52.550;13.462;2023-02-26T05:31:03;86.47;;;36.93;;
9807;SDS011;4943;52.550;13.462;2023-02-26T05:33:32;90.00;;;35.70;;
9807;SDS011;4943;52.550;13.462;2023-02-26T05:35:59;89.77;;;37.53;;
9807;SDS011;4943;52.550;13.462;2023-02-26T05:38:27;87.17;;;36.17;;
9807;SDS011;4943;52.550;13.462;2023-02-26T05:40:56;89.27;;;37.13;;
9807;SDS011;4943;52.550;13.462;2023-02-26T05:43:24;85.93;;;36.77;;
9807;SDS011;4943;52.550;13.462;2023-02-26T05:45:53;85.73;;;36.17;;
9807;SDS011;4943;52.550;13.462;2023-02-26T05:48:23;82.00;;;35.13;;
9807;SDS011;4943;52.550;13.462;2023-02-26T05:50:51;84.00;;;35.73;;
9807;SDS011;4943;52.550;13.462;2023-02-26T05:53:19;86.87;;;35.60;;
9807;SDS011;4943;52.550;13.462;2023-02-26T05:55:47;88.90;;;35.83;;
9807;SDS011;4943;52.550;13.462;2023-02-26T05:58:15;90.13;;;37.47;;
9807;SDS011;4943;52.550;13.462;2023-02-26T06:00:43;90.07;;;36.67;;
9807;SDS011;4943;52.550;13.462;2023-02-26T06:03:12;88.67;;;36.33;;
9807;SDS011;4943;52.550;13.462;2023-02-26T06:05:41;90.83;;;36.03;;
9807;SDS011;4943;52.550;13.462;2023-02-26T06:08:09;90.53;;;37.03;;
9807;SDS011;4943;52.550;13.462;2023-02-26T06:10:41;87.63;;;36.07;;
9807;SDS011;4943;52.550;13.462;2023-02-26T06:13:09;83.30;;;35.53;;
9807;SDS011;4943;52.550;13.462;2023-02-26T06:15:37;90.03;;;36.40;;
9807;SDS011;4943;52.550;13.462;2023-02-26T06:18:05;91.17;;;37.23;;
9807;SDS011;4943;52.550;13.462;2023-02-26T06:20:33;86.93;;;35.63;;
9807;SDS011;4943;52.550;13.462;2023-02-26T06:23:03;90.80;;;37.90;;
9807;SDS011;4943;52.550;13.462;2023-02-26T06:25:31;90.67;;;36.70;;
9807;SDS011;4943;52.550;13.462;2023-02-26T06:27:59;96.93;;;38.67;;
9807;SDS011;4943;52.550;13.462;2023-02-26T06:30:27;92.23;;;37.10;;
9807;SDS011;4943;52.550;13.462;2023-02-26T06:32:56;91.20;;;37.23;;
9807;SDS011;4943;52.550;13.462;2023-02-26T06:35:24;92.67;;;37.00;;
9807;SDS011;4943;52.550;13.462;2023-02-26T06:37:53;92.40;;;37.73;;
9807;SDS011;4943;52.550;13.462;2023-02-26T06:40:23;93.00;;;37.00;;
9807;SDS011;4943;52.550;13.462;2023-02-26T06:42:51;95.90;;;37.23;;
9807;SDS011;4943;52.550;13.462;2023-02-26T06:45:19;94.40;;;36.97;;
9807;SDS011;4943;52.550;13.462;2023-02-26T06:47:47;98.33;;;37.97;;
9807;SDS011;4943;52.550;13.462;2023-02-26T06:50:15;103.70;;;39.27;;
9807;SDS011;4943;52.550;13.462;2023-02-26T06:52:44;95.47;;;38.23;;
9807;SDS011;4943;52.550;13.462;2023-02-26T06:55:12;97.07;;;38.60;;
9807;SDS011;4943;52.550;13.462;2023-02-26T06:57:41;95.40;;;37.60;;
9807;SDS011;4943;52.550;13.462;2023-02-26T07:00:09;96.30;;;39.03;;
9807;SDS011;4943;52.550;13.462;2023-02-26T07:02:38;97.97;;;38.70;;
9807;SDS011;4943;52.550;13.462;2023-02-26T07:05:06;96.63;;;39.30;;
9807;SDS011;4943;52.550;13.462;2023-02-26T07:07:35;96.57;;;38.17;;
9807;SDS011;4943;52.550;13.462;2023-02-26T07:10:03;97.37;;;40.07;;
9807;SDS011;4943;52.550;13.462;2023-02-26T07:12:32;97.40;;;38.53;;
9807;SDS011;4943;52.550;13.462;2023-02-26T07:15:01;96.13;;;37.97;;
9807;SDS011;4943;52.550;13.462;2023-02-26T07:17:29;93.03;;;38.13;;
9807;SDS011;4943;52.550;13.462;2023-02-26T07:19:58;96.23;;;39.50;;
9807;SDS011;4943;52.550;13.462;2023-02-26T07:22:31;95.37;;;38.20;;
9807;SDS011;4943;52.550;13.462;2023-02-26T07:24:59;92.13;;;37.17;;
9807;SDS011;4943;52.550;13.462;2023-02-26T07:27:27;95.80;;;37.50;;
9807;SDS011;4943;52.550;13.462;2023-02-26T07:29:56;91.20;;;37.50;;
9807;SDS011;4943;52.550;13.462;2023-02-26T07:32:25;91.13;;;36.90;;
9807;SDS011;4943;52.550;13.462;2023-02-26T07:34:53;94.77;;;37.50;;
9807;SDS011;4943;52.550;13.462;2023-02-26T07:37:21;92.47;;;37.90;;
9807;SDS011;4943;52.550;13.462;2023-02-26T07:39:50;90.40;;;36.70;;
9807;SDS011;4943;52.550;13.462;2023-02-26T07:42:18;92.73;;;37.90;;
9807;SDS011;4943;52.550;13.462;2023-02-26T07:44:46;86.90;;;36.93;;
9807;SDS011;4943;52.550;13.462;2023-02-26T07:47:14;89.60;;;36.90;;
9807;SDS011;4943;52.550;13.462;2023-02-26T07:49:44;86.50;;;36.40;;
9807;SDS011;4943;52.550;13.462;2023-02-26T07:52:12;94.23;;;37.70;;
9807;SDS011;4943;52.550;13.462;2023-02-26T07:54:40;90.73;;;36.97;;
9807;SDS011;4943;52.550;13.462;2023-02-26T07:57:08;89.50;;;37.70;;
9807;SDS011;4943;52.550;13.462;2023-02-26T07:59:36;95.57;;;37.43;;
9807;SDS011;4943;52.550;13.462;2023-02-26T08:02:04;93.83;;;37.67;;
9807;SDS011;4943;52.550;13.462;2023-02-26T08:04:32;99.47;;;38.40;;
9807;SDS011;4943;52.550;13.462;2023-02-26T08:07:02;95.13;;;38.33;;
9807;SDS011;4943;52.550;13.462;2023-02-26T08:09:31;91.73;;;36.83;;
9807;SDS011;4943;52.550;13.462;2023-02-26T08:11:59;94.77;;;39.10;;
9807;SDS011;4943;52.550;13.462;2023-02-26T08:14:27;90.20;;;37.37;;
9807;SDS011;4943;52.550;13.462;2023-02-26T08:16:55;89.87;;;37.67;;
9807;SDS011;4943;52.550;13.462;2023-02-26T08:19:24;84.47;;;36.43;;
9807;SDS011;4943;52.550;13.462;2023-02-26T08:21:52;87.90;;;36.40;;
9807;SDS011;4943;52.550;13.462;2023-02-26T08:24:22;87.90;;;36.70;;
9807;SDS011;4943;52.550;13.462;2023-02-26T08:26:50;90.37;;;38.27;;
9807;SDS011;4943;52.550;13.462;2023-02-26T08:29:18;90.20;;;36.90;;
9807;SDS011;4943;52.550;13.462;2023-02-26T08:31:46;91.67;;;38.80;;
9807;SDS011;4943;52.550;13.462;2023-02-26T08:34:14;90.80;;;37.23;;
9807;SDS011;4943;52.550;13.462;2023-02-26T08:36:42;86.83;;;36.33;;
9807;SDS011;4943;52.550;13.462;2023-02-26T08:39:10;90.13;;;38.07;;
9807;SDS011;4943;52.550;13.462;2023-02-26T08:41:40;91.10;;;37.73;;
9807;SDS011;4943;52.550;13.462;2023-02-26T08:44:08;94.50;;;38.67;;
9807;SDS011;4943;52.550;13.462;2023-02-26T08:46:36;92.90;;;37.70;;
9807;SDS011;4943;52.550;13.462;2023-02-26T08:49:06;90.43;;;37.57;;
9807;SDS011;4943;52.550;13.462;2023-02-26T08:51:34;89.83;;;36.47;;
9807;SDS011;4943;52.550;13.462;2023-02-26T08:54:02;91.73;;;38.20;;
9807;SDS011;4943;52.550;13.462;2023-02-26T08:56:30;86.30;;;36.40;;
9807;SDS011;4943;52.550;13.462;2023-02-26T08:59:00;94.60;;;38.83;;
9807;SDS011;4943;52.550;13.462;2023-02-26T09:01:28;95.60;;;39.13;;
9807;SDS011;4943;52.550;13.462;2023-02-26T09:03:56;94.60;;;37.50;;
9807;SDS011;4943;52.550;13.462;2023-02-26T09:06:24;95.30;;;38.13;;
9807;SDS011;4943;52.550;13.462;2023-02-26T09:08:53;98.20;;;39.27;;
9807;SDS011;4943;52.550;13.462;2023-02-26T09:11:20;99.80;;;40.03;;
9807;SDS011;4943;52.550;13.462;2023-02-26T09:13:49;93.20;;;38.50;;
9807;SDS011;4943;52.550;13.462;2023-02-26T09:16:19;99.60;;;39.57;;
9807;SDS011;4943;52.550;13.462;2023-02-26T09:18:47;104.27;;;40.90;;
9807;SDS011;4943;52.550;13.462;2023-02-26T09:21:15;96.27;;;39.00;;
9807;SDS011;4943;52.550;13.462;2023-02-26T09:23:44;100.93;;;40.20;;
9807;SDS011;4943;52.550;13.462;2023-02-26T09:26:12;105.67;;;41.77;;
9807;SDS011;4943;52.550;13.462;2023-02-26T09:28:40;107.73;;;42.33;;
9807;SDS011;4943;52.550;13.462;2023-02-26T09:31:08;107.90;;;42.23;;
9807;SDS011;4943;52.550;13.462;2023-02-26T09:33:37;110.07;;;43.20;;
9807;SDS011;4943;52.550;13.462;2023-02-26T09:36:06;112.43;;;42.57;;
9807;SDS011;4943;52.550;13.462;2023-02-26T09:38:34;107.13;;;41.97;;
9807;SDS011;4943;52.550;13.462;2023-02-26T09:41:02;107.53;;;41.97;;
9807;SDS011;4943;52.550;13.462;2023-02-26T09:43:36;109.07;;;41.17;;
9807;SDS011;4943;52.550;13.462;2023-02-26T09:46:30;111.03;;;42.00;;
9807;SDS011;4943;52.550;13.462;2023-02-26T09:49:11;114.63;;;42.77;;
9807;SDS011;4943;52.550;13.462;2023-02-26T09:51:46;115.97;;;43.07;;
9807;SDS011;4943;52.550;13.462;2023-02-26T09:54:18;117.73;;;44.93;;
9807;SDS011;4943;52.550;13.462;2023-02-26T09:56:49;112.83;;;43.40;;
9807;SDS011;4943;52.550;13.462;2023-02-26T09:59:19;111.63;;;43.63;;
9807;SDS011;4943;52.550;13.462;2023-02-26T10:01:49;109.27;;;44.87;;
9807;SDS011;4943;52.550;13.462;2023-02-26T10:04:29;112.47;;;45.03;;
9807;SDS011;4943;52.550;13.462;2023-02-26T10:07:14;109.73;;;44.63;;
9807;SDS011;4943;52.550;13.462;2023-02-26T10:09:53;112.50;;;44.50;;
9807;SDS011;4943;52.550;13.462;2023-02-26T10:12:28;121.37;;;46.93;;
9807;SDS011;4943;52.550;13.462;2023-02-26T10:15:00;123.57;;;46.50;;
9807;SDS011;4943;52.550;13.462;2023-02-26T10:17:32;118.13;;;44.83;;
9807;SDS011;4943;52.550;13.462;2023-02-26T10:20:09;121.23;;;46.47;;
9807;SDS011;4943;52.550;13.462;2023-02-26T10:22:42;122.30;;;46.53;;
9807;SDS011;4943;52.550;13.462;2023-02-26T10:25:14;127.63;;;47.70;;
9807;SDS011;4943;52.550;13.462;2023-02-26T10:27:49;123.83;;;46.30;;
9807;SDS011;4943;52.550;13.462;2023-02-26T10:30:27;123.07;;;46.93;;
9807;SDS011;4943;52.550;13.462;2023-02-26T10:33:03;128.43;;;47.60;;
9807;SDS011;4943;52.550;13.462;2023-02-26T10:35:46;133.43;;;48.77;;
9807;SDS011;4943;52.550;13.462;2023-02-26T10:38:19;133.77;;;48.47;;
9807;SDS011;4943;52.550;13.462;2023-02-26T10:40:53;117.10;;;46.00;;
9807;SDS011;4943;52.550;13.462;2023-02-26T10:43:27;112.37;;;46.90;;
9807;SDS011;4943;52.550;13.462;2023-02-26T10:46:07;122.63;;;46.20;;
9807;SDS011;4943;52.550;13.462;2023-02-26T10:48:51;110.47;;;45.27;;
9807;SDS011;4943;52.550;13.462;2023-02-26T10:51:33;113.73;;;45.63;;
9807;SDS011;4943;52.550;13.462;2023-02-26T10:54:05;104.67;;;43.63;;
9807;SDS011;4943;52.550;13.462;2023-02-26T10:56:41;98.13;;;42.30;;
9807;SDS011;4943;52.550;13.462;2023-02-26T10:59:09;87.10;;;41.03;;
9807;SDS011;4943;52.550;13.462;2023-02-26T11:01:37;70.07;;;36.20;;
9807;SDS011;4943;52.550;13.462;2023-02-26T11:04:06;68.00;;;35.50;;
9807;SDS011;4943;52.550;13.462;2023-02-26T11:06:40;68.53;;;36.23;;
9807;SDS011;4943;52.550;13.462;2023-02-26T11:09:15;70.33;;;38.43;;
9807;SDS011;4943;52.550;13.462;2023-02-26T11:11:48;70.10;;;36.17;;
9807;SDS011;4943;52.550;13.462;2023-02-26T11:14:18;69.07;;;36.77;;
9807;SDS011;4943;52.550;13.462;2023-02-26T11:16:48;72.20;;;37.03;;
9807;SDS011;4943;52.550;13.462;2023-02-26T11:19:22;64.10;;;35.43;;
9807;SDS011;4943;52.550;13.462;2023-02-26T11:21:55;64.33;;;32.90;;
9807;SDS011;4943;52.550;13.462;2023-02-26T11:24:27;62.77;;;32.60;;
9807;SDS011;4943;52.550;13.462;2023-02-26T11:26:58;61.80;;;30.57;;
9807;SDS011;4943;52.550;13.462;2023-02-26T11:29:32;67.87;;;34.13;;
9807;SDS011;4943;52.550;13.462;2023-02-26T11:32:04;57.97;;;32.83;;
9807;SDS011;4943;52.550;13.462;2023-02-26T11:34:33;61.57;;;34.17;;
9807;SDS011;4943;52.550;13.462;2023-02-26T11:37:03;56.70;;;32.13;;
9807;SDS011;4943;52.550;13.462;2023-02-26T11:39:32;39.47;;;22.40;;
9807;SDS011;4943;52.550;13.462;2023-02-26T11:42:02;41.93;;;21.93;;
9807;SDS011;4943;52.550;13.462;2023-02-26T11:44:34;34.13;;;18.33;;
9807;SDS011;4943;52.550;13.462;2023-02-26T11:47:04;18.40;;;14.50;;
9807;SDS011;4943;52.550;13.462;2023-02-26T11:49:34;28.73;;;21.10;;
9807;SDS011;4943;52.550;13.462;2023-02-26T11:52:21;26.83;;;24.20;;
9807;SDS011;4943;52.550;13.462;2023-02-26T11:55:01;16.57;;;15.20;;
9807;SDS011;4943;52.550;13.462;2023-02-26T11:57:31;27.33;;;22.13;;
9807;SDS011;4943;52.550;13.462;2023-02-26T12:00:02;51.47;;;35.73;;
9807;SDS011;4943;52.550;13.462;2023-02-26T12:02:44;49.50;;;31.40;;
9807;SDS011;4943;52.550;13.462;2023-02-26T12:05:13;50.80;;;32.37;;
9807;SDS011;4943;52.550;13.462;2023-02-26T12:07:44;41.23;;;25.63;;
9807;SDS011;4943;52.550;13.462;2023-02-26T12:10:14;36.10;;;24.07;;
9807;SDS011;4943;52.550;13.462;2023-02-26T12:12:52;28.67;;;18.03;;
9807;SDS011;4943;52.550;13.462;2023-02-26T12:15:31;12.33;;;11.57;;
9807;SDS011;4943;52.550;13.462;2023-02-26T12:18:12;26.53;;;17.93;;
9807;SDS011;4943;52.550;13.462;2023-02-26T12:20:55;22.97;;;16.67;;
9807;SDS011;4943;52.550;13.462;2023-02-26T12:23:38;16.60;;;11.43;;
9807;SDS011;4943;52.550;13.462;2023-02-26T12:26:24;16.23;;;11.63;;
9807;SDS011;4943;52.550;13.462;2023-02-26T12:29:06;8.13;;;7.37;;
9807;SDS011;4943;52.550;13.462;2023-02-26T12:31:57;8.17;;;7.40;;
9807;SDS011;4943;52.550;13.462;2023-02-26T12:38:07;9.60;;;8.60;;
9807;SDS011;4943;52.550;13.462;2023-02-26T12:40:51;9.47;;;7.47;;
9807;SDS011;4943;52.550;13.462;2023-02-26T12:43:39;7.13;;;6.40;;
9807;SDS011;4943;52.550;13.462;2023-02-26T12:46:15;10.03;;;7.10;;
9807;SDS011;4943;52.550;13.462;2023-02-26T12:49:05;7.17;;;6.43;;
9807;SDS011;4943;52.550;13.462;2023-02-26T12:51:51;4.20;;;3.90;;
9807;SDS011;4943;52.550;13.462;2023-02-26T12:54:43;7.53;;;6.80;;
9807;SDS011;4943;52.550;13.462;2023-02-26T12:57:35;5.00;;;4.63;;
9807;SDS011;4943;52.550;13.462;2023-02-26T13:00:37;3.10;;;2.90;;
9807;SDS011;4943;52.550;13.462;2023-02-26T13:03:23;1.27;;;1.17;;
9807;SDS011;4943;52.550;13.462;2023-02-26T13:09:16;2.73;;;2.53;;
9807;SDS011;4943;52.550;13.462;2023-02-26T13:12:00;2.03;;;1.93;;
9807;SDS011;4943;52.550;13.462;2023-02-26T13:14:43;4.60;;;2.33;;
9807;SDS011;4943;52.550;13.462;2023-02-26T13:17:20;2.00;;;1.90;;
9807;SDS011;4943;52.550;13.462;2023-02-26T13:19:54;2.07;;;1.00;;
9807;SDS011;4943;52.550;13.462;2023-02-26T13:22:25;0.87;;;0.57;;
9807;SDS011;4943;52.550;13.462;2023-02-26T13:24:58;0.80;;;0.67;;
9807;SDS011;4943;52.550;13.462;2023-02-26T13:27:30;1.00;;;0.87;;
9807;SDS011;4943;52.550;13.462;2023-02-26T13:30:16;0.37;;;0.30;;
9807;SDS011;4943;52.550;13.462;2023-02-26T13:32:49;0.50;;;0.30;;
9807;SDS011;4943;52.550;13.462;2023-02-26T13:35:21;0.30;;;0.30;;
9807;SDS011;4943;52.550;13.462;2023-02-26T13:37:54;2.63;;;0.50;;
9807;SDS011;4943;52.550;13.462;2023-02-26T13:40:42;0.57;;;0.57;;
9807;SDS011;4943;52.550;13.462;2023-02-26T13:43:23;0.40;;;0.40;;
9807;SDS011;4943;52.550;13.462;2023-02-26T13:46:07;0.40;;;0.40;;
9807;SDS011;4943;52.550;13.462;2023-02-26T13:48:52;0.13;;;0.13;;
9807;SDS011;4943;52.550;13.462;2023-02-26T13:51:28;1.43;;;0.47;;
9807;SDS011;4943;52.550;13.462;2023-02-26T13:54:01;0.33;;;0.30;;
9807;SDS011;4943;52.550;13.462;2023-02-26T13:56:53;0.40;;;0.20;;
9807;SDS011;4943;52.550;13.462;2023-02-26T13:59:35;0.53;;;0.40;;
9807;SDS011;4943;52.550;13.462;2023-02-26T14:05:32;0.30;;;0.30;;
9807;SDS011;4943;52.550;13.462;2023-02-26T14:08:15;0.10;;;0.10;;
9807;SDS011;4943;52.550;13.462;2023-02-26T14:11:12;0.20;;;0.20;;
9807;SDS011;4943;52.550;13.462;2023-02-26T14:14:10;0.27;;;0.27;;
9807;SDS011;4943;52.550;13.462;2023-02-26T14:16:40;0.30;;;0.30;;
9807;SDS011;4943;52.550;13.462;2023-02-26T14:19:19;0.77;;;0.30;;
9807;SDS011;4943;52.550;13.462;2023-02-26T14:21:51;0.77;;;0.67;;
9807;SDS011;4943;52.550;13.462;2023-02-26T14:24:24;0.87;;;0.37;;
9807;SDS011;4943;52.550;13.462;2023-02-26T14:27:20;0.57;;;0.07;;
9807;SDS011;4943;52.550;13.462;2023-02-26T14:29:58;0.60;;;0.40;;
9807;SDS011;4943;52.550;13.462;2023-02-26T14:32:29;0.23;;;0.23;;
9807;SDS011;4943;52.550;13.462;2023-02-26T14:34:58;0.67;;;0.30;;
9807;SDS011;4943;52.550;13.462;2023-02-26T14:37:32;0.67;;;0.60;;
9807;SDS011;4943;52.550;13.462;2023-02-26T14:40:04;0.10;;;0.10;;
9807;SDS011;4943;52.550;13.462;2023-02-26T14:42:40;0.43;;;0.43;;
9807;SDS011;4943;52.550;13.462;2023-02-26T14:45:17;0.27;;;0.27;;
9807;SDS011;4943;52.550;13.462;2023-02-26T14:47:55;0.40;;;0.40;;
9807;SDS011;4943;52.550;13.462;2023-02-26T14:50:24;0.83;;;0.50;;
9807;SDS011;4943;52.550;13.462;2023-02-26T14:56:34;0.27;;;0.27;;
9807;SDS011;4943;52.550;13.462;2023-02-26T14:59:19;0.63;;;0.63;;
9807;SDS011;4943;52.550;13.462;2023-02-26T15:02:08;0.77;;;0.77;;
9807;SDS011;4943;52.550;13.462;2023-02-26T15:04:57;0.77;;;0.57;;
9807;SDS011;4943;52.550;13.462;2023-02-26T15:07:46;2.03;;;1.93;;
9807;SDS011;4943;52.550;13.462;2023-02-26T15:10:28;1.93;;;1.83;;
9807;SDS011;4943;52.550;13.462;2023-02-26T15:13:11;4.30;;;3.97;;
9807;SDS011;4943;52.550;13.462;2023-02-26T15:16:00;4.97;;;4.50;;
9807;SDS011;4943;52.550;13.462;2023-02-26T15:18:48;3.37;;;3.13;;
9807;SDS011;4943;52.550;13.462;2023-02-26T15:21:27;3.73;;;3.20;;